createdAt,value
2018-08-31T00:00:25.348Z,8.37
2018-08-31T00:02:53.786Z,7.57
2018-08-31T00:05:36.787Z,5.87
2018-08-31T00:08:10.327Z,7.97
2018-08-31T00:10:44.586Z,8.33
2018-08-31T00:13:12.613Z,5.23
2018-08-31T00:15:40.636Z,4.80
2018-08-31T00:18:08.660Z,6.67
2018-08-31T00:20:36.681Z,6.57
2018-08-31T00:23:04.711Z,7.00
2018-08-31T00:26:09.241Z,4.93
2018-08-31T00:28:42.755Z,6.30
2018-08-31T00:31:16.203Z,8.23
2018-08-31T00:34:53.542Z,6.00
2018-08-31T00:37:26.310Z,4.97
2018-08-31T00:39:59.079Z,4.43
2018-08-31T00:42:32.815Z,4.97
2018-08-31T00:45:39.262Z,10.23
2018-08-31T00:48:07.631Z,7.00
2018-08-31T00:50:35.858Z,5.73
2018-08-31T00:53:04.390Z,3.47
2018-08-31T00:55:32.395Z,5.37
2018-08-31T00:58:00.438Z,6.30
2018-08-31T01:00:28.549Z,6.80
2018-08-31T01:02:56.585Z,5.57
2018-08-31T01:05:24.599Z,8.03
2018-08-31T01:07:52.687Z,7.30
2018-08-31T01:10:21.766Z,9.63
2018-08-31T01:12:49.980Z,7.20
2018-08-31T01:15:17.998Z,3.07
2018-08-31T01:17:46.047Z,5.90
2018-08-31T01:20:14.075Z,3.93
2018-08-31T01:22:42.142Z,6.03
2018-08-31T01:25:10.705Z,4.43
2018-08-31T01:27:38.765Z,7.50
2018-08-31T01:30:06.982Z,5.03
2018-08-31T01:32:35.003Z,4.57
2018-08-31T01:35:03.106Z,5.73
2018-08-31T01:37:31.235Z,5.60
2018-08-31T01:39:59.250Z,5.50
2018-08-31T01:42:27.271Z,5.17
2018-08-31T01:44:55.290Z,3.40
2018-08-31T01:47:23.332Z,5.80
2018-08-31T01:49:51.370Z,6.30
2018-08-31T01:52:19.442Z,6.00
2018-08-31T01:54:47.462Z,5.00
2018-08-31T01:57:15.486Z,5.53
2018-08-31T01:59:43.506Z,7.03
2018-08-31T02:02:11.594Z,7.67
2018-08-31T02:04:39.625Z,5.97
2018-08-31T02:07:07.635Z,6.10
2018-08-31T02:09:35.670Z,6.33
2018-08-31T02:12:03.714Z,4.60
2018-08-31T02:14:31.754Z,6.17
2018-08-31T02:16:59.792Z,5.87
2018-08-31T02:19:27.799Z,4.63
2018-08-31T02:21:55.818Z,7.10
2018-08-31T02:24:23.846Z,5.20
2018-08-31T02:26:51.866Z,7.30
2018-08-31T02:29:19.890Z,6.50
2018-08-31T02:31:47.905Z,7.10
2018-08-31T02:34:15.926Z,6.17
2018-08-31T02:36:43.950Z,8.30
2018-08-31T02:39:12.091Z,4.53
2018-08-31T02:41:40.013Z,6.63
2018-08-31T02:44:08.091Z,6.87
2018-08-31T02:46:36.118Z,4.57
2018-08-31T02:49:04.134Z,8.93
2018-08-31T02:51:32.162Z,5.83
2018-08-31T02:54:00.181Z,5.77
2018-08-31T02:56:28.170Z,5.03
2018-08-31T02:58:56.198Z,7.53
2018-08-31T03:01:24.238Z,7.67
2018-08-31T03:03:52.297Z,7.03
2018-08-31T03:06:20.335Z,6.30
2018-08-31T03:08:48.375Z,5.07
2018-08-31T03:11:16.403Z,8.63
2018-08-31T03:13:44.414Z,5.93
2018-08-31T03:16:12.449Z,6.33
2018-08-31T03:18:40.462Z,12.77
2018-08-31T03:21:08.501Z,5.97
2018-08-31T03:23:36.506Z,6.70
2018-08-31T03:26:04.535Z,6.97
2018-08-31T03:28:32.545Z,8.17
2018-08-31T03:31:00.548Z,5.10
2018-08-31T03:33:28.568Z,5.47
2018-08-31T03:35:56.606Z,6.23
2018-08-31T03:38:24.623Z,6.83
2018-08-31T03:40:52.639Z,7.73
2018-08-31T03:43:20.664Z,5.93
2018-08-31T03:45:48.668Z,4.90
2018-08-31T03:48:16.697Z,7.00
2018-08-31T03:50:44.731Z,7.43
2018-08-31T03:53:12.762Z,5.77
2018-08-31T03:55:40.800Z,8.20
2018-08-31T03:58:08.829Z,6.03
2018-08-31T04:00:36.843Z,5.00
2018-08-31T04:03:05.003Z,5.30
2018-08-31T04:05:33.027Z,8.00
2018-08-31T04:08:01.050Z,4.83
2018-08-31T04:10:29.082Z,6.20
2018-08-31T04:12:57.126Z,7.13
2018-08-31T04:15:25.142Z,6.60
2018-08-31T04:17:53.163Z,4.53
2018-08-31T04:20:21.175Z,8.33
2018-08-31T04:22:49.195Z,5.87
2018-08-31T04:25:17.218Z,5.40
2018-08-31T04:27:45.235Z,5.47
2018-08-31T04:30:13.258Z,3.73
2018-08-31T04:32:41.302Z,6.10
2018-08-31T04:35:09.329Z,7.33
2018-08-31T04:37:37.351Z,5.97
2018-08-31T04:40:05.732Z,6.27
2018-08-31T04:42:33.758Z,6.73
2018-08-31T04:45:01.782Z,6.97
2018-08-31T04:47:29.810Z,7.37
2018-08-31T04:49:57.814Z,5.57
2018-08-31T04:52:25.835Z,7.23
2018-08-31T04:54:53.867Z,5.67
2018-08-31T04:57:21.894Z,7.30
2018-08-31T04:59:49.951Z,6.43
2018-08-31T05:02:17.975Z,7.07
2018-08-31T05:04:45.982Z,7.10
2018-08-31T05:07:14.074Z,6.97
2018-08-31T05:09:42.119Z,5.90
2018-08-31T05:12:10.151Z,8.27
2018-08-31T05:14:38.162Z,6.53
2018-08-31T05:17:06.186Z,6.37
2018-08-31T05:19:34.202Z,5.20
2018-08-31T05:22:02.236Z,6.77
2018-08-31T05:24:30.268Z,6.83
2018-08-31T05:26:58.308Z,5.10
2018-08-31T05:29:26.390Z,5.90
2018-08-31T05:31:54.407Z,6.70
2018-08-31T05:34:22.463Z,8.13
2018-08-31T05:36:50.491Z,8.93
2018-08-31T05:39:18.509Z,7.57
2018-08-31T05:41:46.545Z,6.50
2018-08-31T05:44:14.551Z,7.43
2018-08-31T05:46:42.588Z,4.97
2018-08-31T05:49:10.606Z,6.73
2018-08-31T05:51:38.623Z,8.43
2018-08-31T05:54:06.831Z,7.67
2018-08-31T05:56:34.914Z,7.67
2018-08-31T05:59:02.955Z,11.53
2018-08-31T06:01:31.003Z,7.67
2018-08-31T06:03:59.028Z,6.90
2018-08-31T06:06:27.051Z,11.20
2018-08-31T06:08:55.099Z,10.13
2018-08-31T06:11:23.140Z,6.17
2018-08-31T06:13:51.148Z,13.53
2018-08-31T06:16:19.171Z,7.43
2018-08-31T06:18:47.206Z,8.23
2018-08-31T06:21:15.232Z,13.17
2018-08-31T06:23:43.279Z,12.43
2018-08-31T06:26:11.287Z,6.50
2018-08-31T06:28:39.300Z,8.23
2018-08-31T06:31:07.799Z,9.20
2018-08-31T06:33:35.812Z,9.03
2018-08-31T06:36:03.839Z,6.93
2018-08-31T06:38:31.896Z,6.80
2018-08-31T06:40:59.907Z,6.93
2018-08-31T06:43:27.938Z,7.63
2018-08-31T06:45:55.972Z,11.37
2018-08-31T06:48:24.019Z,7.70
2018-08-31T06:50:52.080Z,6.30
2018-08-31T06:53:20.109Z,8.30
2018-08-31T06:55:48.132Z,8.17
2018-08-31T06:58:16.179Z,6.27
2018-08-31T07:00:44.203Z,8.20
2018-08-31T07:03:12.223Z,11.43
2018-08-31T07:05:40.247Z,8.23
2018-08-31T07:08:08.277Z,7.53
2018-08-31T07:10:36.375Z,7.97
2018-08-31T07:13:04.412Z,5.20
2018-08-31T07:15:32.439Z,5.10
2018-08-31T07:18:00.482Z,7.60
2018-08-31T07:20:28.514Z,5.07
2018-08-31T07:22:56.535Z,7.37
2018-08-31T07:25:24.564Z,7.73
2018-08-31T07:27:52.575Z,6.57
2018-08-31T07:30:20.588Z,4.20
2018-08-31T07:32:48.603Z,4.30
2018-08-31T07:35:16.624Z,4.10
2018-08-31T07:37:44.647Z,9.13
2018-08-31T07:40:12.683Z,3.37
2018-08-31T07:42:40.695Z,4.90
2018-08-31T07:45:08.732Z,6.87
2018-08-31T07:47:36.838Z,5.63
2018-08-31T07:50:05.422Z,7.23
2018-08-31T07:52:33.456Z,2.70
2018-08-31T07:55:01.493Z,4.43
2018-08-31T07:57:29.834Z,3.57
2018-08-31T07:59:57.928Z,5.47
2018-08-31T08:02:26.298Z,2.50
2018-08-31T08:04:54.336Z,4.10
2018-08-31T08:07:22.411Z,2.77
2018-08-31T08:09:50.405Z,3.77
2018-08-31T08:12:18.623Z,3.30
2018-08-31T08:14:46.729Z,5.63
2018-08-31T08:17:14.652Z,4.10
2018-08-31T08:19:42.764Z,5.43
2018-08-31T08:22:10.725Z,5.40
2018-08-31T08:24:38.748Z,3.53
2018-08-31T08:27:07.034Z,3.27
2018-08-31T08:29:35.340Z,3.70
2018-08-31T08:32:03.646Z,6.87
2018-08-31T08:34:31.965Z,4.97
2018-08-31T08:37:00.271Z,4.93
2018-08-31T08:39:28.571Z,3.47
2018-08-31T08:41:56.929Z,3.67
2018-08-31T08:44:25.180Z,3.70
2018-08-31T08:46:53.479Z,4.20
2018-08-31T08:49:21.767Z,3.87
2018-08-31T08:51:50.070Z,5.03
2018-08-31T08:54:18.351Z,5.83
2018-08-31T08:56:46.642Z,2.93
2018-08-31T08:59:14.964Z,7.80
2018-08-31T09:01:43.275Z,4.83
2018-08-31T09:04:11.579Z,6.27
2018-08-31T09:06:39.912Z,4.60
2018-08-31T09:09:09.043Z,5.40
2018-08-31T09:11:37.564Z,4.47
2018-08-31T09:14:05.998Z,6.00
2018-08-31T09:16:34.410Z,3.37
2018-08-31T09:19:02.707Z,5.27
2018-08-31T09:21:31.041Z,4.67
2018-08-31T09:23:59.403Z,4.03
2018-08-31T09:26:27.751Z,5.67
2018-08-31T09:28:56.043Z,3.87
2018-08-31T09:31:24.353Z,4.60
2018-08-31T09:33:52.666Z,5.00
2018-08-31T09:36:21.009Z,4.03
2018-08-31T09:38:49.335Z,3.70
2018-08-31T09:41:17.644Z,6.00
2018-08-31T09:43:46.059Z,5.03
2018-08-31T09:46:14.305Z,6.33
2018-08-31T09:48:42.620Z,6.33
2018-08-31T09:51:10.924Z,5.40
2018-08-31T09:53:39.211Z,6.60
2018-08-31T09:56:07.520Z,4.40
2018-08-31T09:58:35.811Z,4.03
2018-08-31T10:01:09.507Z,7.27
2018-08-31T10:03:37.833Z,5.13
2018-08-31T10:06:06.132Z,6.40
2018-08-31T10:08:34.442Z,4.93
2018-08-31T10:11:02.756Z,4.43
2018-08-31T10:13:31.154Z,6.37
2018-08-31T10:15:59.398Z,5.13
2018-08-31T10:18:27.704Z,6.57
2018-08-31T10:20:56.004Z,5.57
2018-08-31T10:23:24.303Z,4.33
2018-08-31T10:25:52.608Z,6.30
2018-08-31T10:28:20.907Z,5.80
2018-08-31T10:30:49.252Z,4.33
2018-08-31T10:33:17.536Z,4.87
2018-08-31T10:35:45.840Z,5.13
2018-08-31T10:38:14.137Z,4.00
2018-08-31T10:40:42.439Z,6.87
2018-08-31T10:43:10.468Z,6.30
2018-08-31T10:45:38.516Z,5.70
2018-08-31T10:48:06.542Z,5.00
2018-08-31T10:50:34.554Z,4.70
2018-08-31T10:53:02.595Z,7.07
2018-08-31T10:55:30.615Z,6.47
2018-08-31T10:57:58.638Z,4.87
2018-08-31T11:00:26.655Z,4.57
2018-08-31T11:02:54.740Z,4.57
2018-08-31T11:05:22.814Z,5.80
2018-08-31T11:07:50.872Z,4.97
2018-08-31T11:10:18.862Z,5.20
2018-08-31T11:12:46.956Z,4.60
2018-08-31T11:15:15.005Z,6.07
2018-08-31T11:17:43.106Z,4.70
2018-08-31T11:20:11.130Z,4.50
2018-08-31T11:22:39.160Z,4.90
2018-08-31T11:25:07.178Z,6.97
2018-08-31T11:27:35.297Z,3.93
2018-08-31T11:30:03.308Z,3.93
2018-08-31T11:32:31.419Z,3.50
2018-08-31T11:34:59.450Z,4.63
2018-08-31T11:37:27.475Z,3.97
2018-08-31T11:39:55.511Z,5.63
2018-08-31T11:42:23.530Z,4.57
2018-08-31T11:44:51.579Z,3.30
2018-08-31T11:47:19.619Z,4.07
2018-08-31T11:49:47.632Z,3.37
2018-08-31T11:52:15.656Z,4.07
2018-08-31T11:54:43.691Z,3.93
2018-08-31T11:57:11.719Z,3.67
2018-08-31T11:59:40.048Z,2.87
2018-08-31T12:02:08.367Z,5.13
2018-08-31T12:04:36.639Z,3.07
2018-08-31T12:07:05.129Z,3.90
2018-08-31T12:09:33.454Z,3.03
2018-08-31T12:12:01.740Z,3.53
2018-08-31T12:14:30.037Z,2.43
2018-08-31T12:16:58.339Z,4.87
2018-08-31T12:19:26.643Z,5.43
2018-08-31T12:21:54.940Z,5.63
2018-08-31T12:24:23.259Z,3.13
2018-08-31T12:26:51.548Z,4.13
2018-08-31T12:29:19.840Z,4.70
2018-08-31T12:31:48.202Z,2.47
2018-08-31T12:34:16.491Z,3.77
2018-08-31T12:36:44.812Z,3.33
2018-08-31T12:39:13.112Z,5.50
2018-08-31T12:41:41.423Z,4.93
2018-08-31T12:44:09.731Z,2.70
2018-08-31T12:46:38.032Z,4.57
2018-08-31T12:49:06.376Z,3.27
2018-08-31T12:51:34.671Z,5.50
2018-08-31T12:54:02.952Z,2.63
2018-08-31T12:56:31.373Z,6.27
2018-08-31T12:58:59.667Z,8.87
2018-08-31T13:01:27.967Z,3.23
2018-08-31T13:03:56.310Z,4.30
2018-08-31T13:06:24.606Z,3.40
2018-08-31T13:08:52.886Z,3.77
2018-08-31T13:11:21.178Z,2.90
2018-08-31T13:13:49.503Z,2.97
2018-08-31T13:16:17.883Z,4.73
2018-08-31T13:18:46.300Z,4.23
2018-08-31T13:21:14.707Z,4.60
2018-08-31T13:23:43.012Z,3.33
2018-08-31T13:26:11.349Z,5.23
2018-08-31T13:28:39.672Z,6.63
2018-08-31T13:31:08.176Z,3.93
2018-08-31T13:33:36.529Z,5.03
2018-08-31T13:36:04.822Z,4.90
2018-08-31T13:38:33.111Z,4.97
2018-08-31T13:41:01.487Z,6.40
2018-08-31T13:43:29.820Z,4.37
2018-08-31T13:45:58.069Z,5.30
2018-08-31T13:48:26.364Z,5.77
2018-08-31T13:50:54.662Z,3.53
2018-08-31T13:53:22.950Z,3.17
2018-08-31T13:55:51.241Z,5.87
2018-08-31T13:58:19.612Z,7.77
2018-08-31T14:00:47.849Z,4.17
2018-08-31T14:03:16.123Z,5.30
2018-08-31T14:05:44.441Z,4.00
2018-08-31T14:08:12.773Z,5.17
2018-08-31T14:10:41.098Z,5.87
2018-08-31T14:13:09.401Z,4.60
2018-08-31T14:15:37.758Z,5.07
2018-08-31T14:18:06.084Z,5.00
2018-08-31T14:20:34.361Z,3.17
2018-08-31T14:23:02.714Z,4.53
2018-08-31T14:25:31.086Z,3.10
2018-08-31T14:27:59.689Z,4.20
2018-08-31T14:30:28.196Z,3.67
2018-08-31T14:32:56.561Z,3.93
2018-08-31T14:35:24.887Z,3.93
2018-08-31T14:37:53.218Z,4.67
2018-08-31T14:40:21.785Z,6.00
2018-08-31T14:42:50.113Z,4.03
2018-08-31T14:45:18.435Z,4.90
2018-08-31T14:47:47.608Z,3.33
2018-08-31T14:50:15.898Z,5.30
2018-08-31T14:52:44.188Z,3.57
2018-08-31T14:55:12.497Z,3.83
2018-08-31T14:57:40.897Z,2.60
2018-08-31T15:00:09.122Z,2.80
2018-08-31T15:02:37.497Z,3.97
2018-08-31T15:05:05.797Z,2.70
2018-08-31T15:07:34.105Z,3.63
2018-08-31T15:10:02.397Z,4.80
2018-08-31T15:12:30.716Z,2.70
2018-08-31T15:14:59.015Z,2.50
2018-08-31T15:17:27.352Z,5.00
2018-08-31T15:19:55.661Z,2.33
2018-08-31T15:22:23.940Z,3.87
2018-08-31T15:24:52.230Z,3.20
2018-08-31T15:27:20.563Z,5.17
2018-08-31T15:29:48.836Z,4.00
2018-08-31T15:32:17.171Z,2.83
2018-08-31T15:34:45.918Z,3.07
2018-08-31T15:37:14.234Z,4.40
2018-08-31T15:39:42.552Z,3.27
2018-08-31T15:42:10.903Z,3.50
2018-08-31T15:44:39.187Z,5.63
2018-08-31T15:47:07.624Z,4.63
2018-08-31T15:49:36.028Z,2.87
2018-08-31T15:52:04.250Z,3.87
2018-08-31T15:54:32.543Z,4.17
2018-08-31T15:57:00.862Z,3.40
2018-08-31T15:59:29.190Z,4.07
2018-08-31T16:01:57.545Z,4.07
2018-08-31T16:04:25.899Z,2.37
2018-08-31T16:06:54.279Z,4.80
2018-08-31T16:09:22.691Z,3.47
2018-08-31T16:11:51.024Z,2.30
2018-08-31T16:14:19.415Z,2.47
2018-08-31T16:16:47.872Z,4.90
2018-08-31T16:19:16.304Z,4.90
2018-08-31T16:21:44.725Z,3.30
2018-08-31T16:24:13.085Z,3.07
2018-08-31T16:26:41.400Z,2.30
2018-08-31T16:29:09.736Z,3.40
2018-08-31T16:31:38.276Z,2.90
2018-08-31T16:34:06.867Z,2.97
2018-08-31T16:36:35.225Z,2.63
2018-08-31T16:39:04.184Z,4.20
2018-08-31T16:41:32.501Z,2.77
2018-08-31T16:44:00.813Z,3.27
2018-08-31T16:46:29.120Z,5.03
2018-08-31T16:48:57.430Z,2.37
2018-08-31T16:51:25.735Z,4.20
2018-08-31T16:53:54.073Z,3.73
2018-08-31T16:56:22.367Z,4.70
2018-08-31T16:58:50.676Z,3.03
2018-08-31T17:01:19.013Z,2.30
2018-08-31T17:03:47.316Z,6.97
2018-08-31T17:06:15.609Z,2.43
2018-08-31T17:08:43.919Z,2.77
2018-08-31T17:11:12.316Z,3.70
2018-08-31T17:13:40.625Z,4.33
2018-08-31T17:16:09.123Z,3.10
2018-08-31T17:18:37.440Z,3.53
2018-08-31T17:21:05.740Z,5.13
2018-08-31T17:23:34.054Z,5.83
2018-08-31T17:26:02.380Z,4.40
2018-08-31T17:28:36.075Z,2.97
2018-08-31T17:31:09.809Z,4.20
2018-08-31T17:35:45.483Z,3.03
2018-08-31T17:38:13.799Z,3.03
2018-08-31T17:40:42.139Z,4.07
2018-08-31T17:43:10.472Z,3.83
2018-08-31T17:45:38.576Z,5.27
2018-08-31T17:48:06.598Z,4.40
2018-08-31T17:50:34.638Z,5.13
2018-08-31T17:53:02.647Z,4.20
2018-08-31T17:55:30.704Z,4.23
2018-08-31T17:57:58.804Z,6.40
2018-08-31T18:00:26.820Z,3.13
2018-08-31T18:02:54.929Z,4.13
2018-08-31T18:05:22.958Z,3.77
2018-08-31T18:07:50.997Z,4.43
2018-08-31T18:10:19.047Z,4.73
2018-08-31T18:12:47.187Z,5.60
2018-08-31T18:15:15.245Z,3.17
2018-08-31T18:17:43.244Z,4.20
2018-08-31T18:20:11.273Z,3.20
2018-08-31T18:22:39.319Z,4.30
2018-08-31T18:25:07.349Z,5.63
2018-08-31T18:27:35.391Z,5.03
2018-08-31T18:30:03.444Z,4.07
2018-08-31T18:32:31.467Z,4.07
2018-08-31T18:34:59.487Z,5.03
2018-08-31T18:37:27.535Z,4.90
2018-08-31T18:39:55.615Z,5.43
2018-08-31T18:42:23.636Z,7.93
2018-08-31T18:44:51.692Z,5.10
2018-08-31T18:47:19.740Z,4.40
2018-08-31T18:49:48.182Z,6.23
2018-08-31T18:52:16.211Z,5.67
2018-08-31T18:54:44.242Z,4.10
2018-08-31T18:57:12.274Z,5.00
2018-08-31T18:59:40.319Z,6.13
2018-08-31T19:02:08.380Z,5.67
2018-08-31T19:04:36.412Z,8.20
2018-08-31T19:07:04.550Z,3.77
2018-08-31T19:09:32.504Z,6.97
2018-08-31T19:12:00.544Z,3.77
2018-08-31T19:14:28.635Z,7.00
2018-08-31T19:16:56.680Z,4.67
2018-08-31T19:19:24.707Z,5.27
2018-08-31T19:21:52.730Z,4.83
2018-08-31T19:24:20.791Z,6.87
2018-08-31T19:26:48.827Z,11.37
2018-08-31T19:29:16.889Z,5.10
2018-08-31T19:31:44.943Z,6.50
2018-08-31T19:34:13.003Z,4.50
2018-08-31T19:36:41.026Z,4.87
2018-08-31T19:39:10.942Z,6.50
2018-08-31T19:41:39.098Z,8.20
2018-08-31T19:44:07.257Z,6.47
2018-08-31T19:46:35.466Z,6.30
2018-08-31T19:49:03.620Z,4.60
2018-08-31T19:51:31.675Z,8.67
2018-08-31T19:53:59.729Z,5.20
2018-08-31T19:56:27.766Z,7.00
2018-08-31T19:58:55.861Z,6.73
2018-08-31T20:01:23.877Z,7.00
2018-08-31T20:03:51.945Z,6.37
2018-08-31T20:06:20.020Z,7.43
2018-08-31T20:08:48.421Z,5.80
2018-08-31T20:11:16.472Z,6.93
2018-08-31T20:13:44.534Z,6.00
2018-08-31T20:16:12.709Z,7.17
2018-08-31T20:18:40.839Z,7.87
2018-08-31T20:21:08.875Z,7.77
2018-08-31T20:23:36.928Z,5.80
2018-08-31T20:26:05.003Z,5.43
2018-08-31T20:28:33.084Z,8.60
2018-08-31T20:31:01.220Z,6.00
2018-08-31T20:33:29.198Z,8.50
2018-08-31T20:35:57.228Z,8.07
2018-08-31T20:38:25.239Z,8.87
2018-08-31T20:40:53.274Z,8.10
2018-08-31T20:43:21.513Z,10.90
2018-08-31T20:45:49.340Z,7.33
2018-08-31T20:48:17.388Z,6.77
2018-08-31T20:50:45.419Z,11.83
2018-08-31T20:53:13.442Z,7.77
2018-08-31T20:55:41.491Z,8.40
2018-08-31T20:58:10.204Z,10.00
2018-08-31T21:00:38.251Z,11.43
2018-08-31T21:03:06.561Z,14.07
2018-08-31T21:05:34.567Z,9.80
2018-08-31T21:08:02.634Z,8.33
2018-08-31T21:10:30.694Z,12.23
2018-08-31T21:12:58.736Z,10.90
2018-08-31T21:15:26.823Z,9.57
2018-08-31T21:17:54.883Z,8.77
2018-08-31T21:20:22.947Z,10.17
2018-08-31T21:22:50.995Z,10.80
2018-08-31T21:25:19.083Z,11.37
2018-08-31T21:27:47.093Z,9.90
2018-08-31T21:30:15.237Z,7.53
2018-08-31T21:32:43.289Z,11.17
2018-08-31T21:35:11.332Z,12.70
2018-08-31T21:37:39.370Z,12.23
2018-08-31T21:40:07.662Z,9.13
2018-08-31T21:42:35.775Z,12.00
2018-08-31T21:45:03.835Z,16.33
2018-08-31T21:47:31.889Z,11.00
2018-08-31T21:49:59.917Z,12.70
2018-08-31T21:52:27.933Z,14.00
2018-08-31T21:54:55.984Z,12.90
2018-08-31T21:57:24.019Z,12.43
2018-08-31T21:59:52.420Z,15.03
2018-08-31T22:02:20.464Z,11.17
2018-08-31T22:04:48.552Z,17.87
2018-08-31T22:07:16.579Z,15.03
2018-08-31T22:09:44.596Z,12.67
2018-08-31T22:12:12.638Z,14.20
2018-08-31T22:14:40.672Z,13.67
2018-08-31T22:17:08.725Z,14.43
2018-08-31T22:19:36.802Z,10.13
2018-08-31T22:22:04.819Z,10.90
2018-08-31T22:24:32.835Z,14.17
2018-08-31T22:27:00.912Z,12.63
2018-08-31T22:29:28.910Z,10.20
2018-08-31T22:31:56.964Z,15.90
2018-08-31T22:34:25.086Z,13.77
2018-08-31T22:36:53.101Z,15.17
2018-08-31T22:39:21.114Z,19.77
2018-08-31T22:41:49.122Z,15.20
2018-08-31T22:44:17.147Z,13.57
2018-08-31T22:46:45.181Z,17.00
2018-08-31T22:49:13.194Z,15.37
2018-08-31T22:51:41.223Z,14.17
2018-08-31T22:54:09.262Z,14.77
2018-08-31T22:56:37.281Z,16.80
2018-08-31T22:59:05.319Z,20.73
2018-08-31T23:01:33.334Z,20.97
2018-08-31T23:04:01.358Z,14.20
2018-08-31T23:06:29.406Z,13.67
2018-08-31T23:08:57.439Z,13.90
2018-08-31T23:11:25.474Z,13.40
2018-08-31T23:13:53.587Z,11.33
2018-08-31T23:16:21.543Z,15.33
2018-08-31T23:18:49.579Z,9.83
2018-08-31T23:21:17.598Z,13.27
2018-08-31T23:23:47.373Z,13.23
2018-08-31T23:26:15.446Z,15.23
2018-08-31T23:28:43.542Z,13.30
2018-08-31T23:31:11.550Z,12.43
2018-08-31T23:33:39.583Z,13.80
2018-08-31T23:36:07.628Z,17.40
2018-08-31T23:38:35.646Z,15.97
2018-08-31T23:41:03.713Z,17.13
2018-08-31T23:43:31.739Z,16.17
2018-08-31T23:45:59.771Z,13.87
2018-08-31T23:48:27.797Z,14.40
2018-08-31T23:50:55.844Z,17.27
2018-08-31T23:53:23.873Z,14.80
2018-08-31T23:55:51.887Z,17.00
2018-08-31T23:58:19.925Z,13.57
